createdAt,value
2023-04-19T00:02:59.708Z,12.17
2023-04-19T00:07:03.583Z,12.18
2023-04-19T00:11:07.677Z,12.19
2023-04-19T00:15:11.752Z,12.21
2023-04-19T00:19:17.232Z,12.20
2023-04-19T00:23:20.396Z,12.19
2023-04-19T00:27:24.396Z,12.19
2023-04-19T00:31:27.798Z,12.19
2023-04-19T00:35:34.906Z,12.19
2023-04-19T00:39:38.323Z,12.18
2023-04-19T00:43:42.189Z,12.19
2023-04-19T00:47:45.423Z,12.20
2023-04-19T00:51:52.087Z,12.20
2023-04-19T00:55:57.241Z,12.18
2023-04-19T01:00:00.882Z,12.17
2023-04-19T01:04:06.679Z,12.14
2023-04-19T01:08:12.178Z,12.12
2023-04-19T01:12:15.541Z,12.08
2023-04-19T01:16:20.551Z,12.04
2023-04-19T01:20:24.075Z,12.01
2023-04-19T01:24:29.385Z,12.00
2023-04-19T01:28:32.563Z,11.97
2023-04-19T01:32:36.289Z,11.94
2023-04-19T01:36:39.618Z,11.88
2023-04-19T01:40:45.196Z,11.78
2023-04-19T01:44:48.527Z,11.66
2023-04-19T01:48:53.634Z,11.52
2023-04-19T01:52:57.209Z,11.40
2023-04-19T01:57:03.080Z,11.32
2023-04-19T02:01:06.264Z,11.30
2023-04-19T02:05:10.936Z,11.31
2023-04-19T02:09:14.210Z,11.35
2023-04-19T02:13:21.373Z,11.41
2023-04-19T02:17:25.892Z,11.46
2023-04-19T02:21:29.490Z,11.52
2023-04-19T02:25:33.464Z,11.57
2023-04-19T02:29:39.024Z,11.64
2023-04-19T02:33:42.540Z,11.68
2023-04-19T02:37:46.933Z,11.73
2023-04-19T02:41:50.482Z,11.76
2023-04-19T02:45:55.701Z,11.67
2023-04-19T02:49:58.968Z,11.80
2023-04-19T02:54:02.468Z,11.84
2023-04-19T02:58:06.403Z,11.86
2023-04-19T03:02:11.494Z,11.87
2023-04-19T03:06:16.544Z,11.86
2023-04-19T03:10:19.943Z,11.89
2023-04-19T03:14:23.878Z,11.91
2023-04-19T03:18:29.990Z,11.92
2023-04-19T03:22:35.206Z,11.90
2023-04-19T03:26:38.490Z,11.94
2023-04-19T03:30:42.220Z,11.93
2023-04-19T03:34:47.341Z,11.94
2023-04-19T03:38:50.643Z,11.90
2023-04-19T03:42:54.059Z,11.87
2023-04-19T03:46:57.934Z,11.80
2023-04-19T03:51:02.759Z,11.73
2023-04-19T03:55:07.124Z,11.62
2023-04-19T03:59:11.263Z,11.56
2023-04-19T04:03:15.147Z,11.52
2023-04-19T04:07:20.231Z,11.50
2023-04-19T04:11:23.947Z,11.45
2023-04-19T04:15:27.312Z,11.42
2023-04-19T04:19:31.055Z,11.35
2023-04-19T04:23:36.006Z,11.42
2023-04-19T04:27:39.957Z,11.44
2023-04-19T04:31:43.730Z,11.46
2023-04-19T04:35:48.622Z,11.46
2023-04-19T04:39:53.681Z,11.50
2023-04-19T04:44:11.389Z,11.48
2023-04-19T04:48:16.602Z,11.51
2023-04-19T04:52:20.205Z,11.51
2023-04-19T04:56:26.429Z,11.60
2023-04-19T05:00:30.147Z,11.64
2023-04-19T05:04:33.145Z,11.69
2023-04-19T05:08:37.011Z,11.76
2023-04-19T05:12:42.763Z,11.85
2023-04-19T05:16:46.970Z,11.92
2023-04-19T05:20:50.315Z,11.99
2023-04-19T05:24:53.474Z,12.04
2023-04-19T05:28:58.197Z,12.07
2023-04-19T05:33:02.075Z,12.12
2023-04-19T05:37:05.525Z,12.12
2023-04-19T05:41:08.816Z,12.23
2023-04-19T05:45:16.029Z,12.29
2023-04-19T05:49:19.382Z,12.34
2023-04-19T05:53:22.569Z,12.43
2023-04-19T05:57:26.373Z,12.53
2023-04-19T06:01:31.296Z,12.64
2023-04-19T06:05:35.213Z,12.72
2023-04-19T06:09:38.460Z,12.88
2023-04-19T06:13:42.284Z,13.01
2023-04-19T06:17:47.478Z,13.13
2023-04-19T06:21:51.863Z,13.22
2023-04-19T06:25:54.925Z,13.32
2023-04-19T06:29:58.459Z,13.42
2023-04-19T06:34:03.265Z,13.50
2023-04-19T06:38:06.843Z,13.59
2023-04-19T06:42:10.329Z,13.65
2023-04-19T06:46:14.402Z,13.72
2023-04-19T06:50:19.825Z,13.81
2023-04-19T06:54:23.258Z,13.90
2023-04-19T06:58:27.331Z,13.97
2023-04-19T07:02:30.906Z,14.04
2023-04-19T07:06:35.730Z,14.08
2023-04-19T07:10:39.151Z,14.08
2023-04-19T07:14:42.445Z,14.09
2023-04-19T07:18:46.238Z,14.09
2023-04-19T07:22:51.177Z,14.11
2023-04-19T07:26:54.674Z,14.13
2023-04-19T07:30:57.778Z,14.17
2023-04-19T07:35:01.406Z,14.21
2023-04-19T07:39:06.326Z,14.28
2023-04-19T07:43:10.442Z,14.34
2023-04-19T07:47:13.984Z,14.37
2023-04-19T07:51:20.100Z,14.37
2023-04-19T07:55:25.061Z,14.36
2023-04-19T07:59:28.679Z,14.34
2023-04-19T08:03:32.451Z,14.33
2023-04-19T08:07:36.329Z,14.34
2023-04-19T08:11:40.620Z,14.38
2023-04-19T08:19:51.198Z,14.45
2023-04-19T08:23:55.084Z,14.48
2023-04-19T08:27:59.502Z,14.51
2023-04-19T08:32:03.351Z,14.52
2023-04-19T08:36:07.340Z,14.55
2023-04-19T08:40:12.080Z,14.57
2023-04-19T08:44:32.552Z,14.59
2023-04-19T08:48:39.658Z,14.60
2023-04-19T08:52:53.992Z,14.60
2023-04-19T08:57:01.590Z,14.65
2023-04-19T09:01:17.095Z,14.65
2023-04-19T09:05:30.318Z,14.72
2023-04-19T09:09:40.696Z,14.70
2023-04-19T09:13:46.900Z,14.65
2023-04-19T09:18:05.147Z,14.55
2023-04-19T09:22:15.708Z,14.43
2023-04-19T09:26:23.507Z,14.29
2023-04-19T09:30:32.363Z,14.19
2023-04-19T09:34:53.816Z,14.08
2023-04-19T09:38:57.181Z,13.98
2023-04-19T09:43:17.486Z,13.86
2023-04-19T09:47:25.752Z,13.76
2023-04-19T09:51:42.155Z,13.66
2023-04-19T09:55:57.779Z,13.54
2023-04-19T10:00:08.516Z,13.51
2023-04-19T10:04:25.875Z,13.49
2023-04-19T10:08:39.842Z,13.49
2023-04-19T10:12:59.194Z,13.51
2023-04-19T10:17:06.749Z,13.57
2023-04-19T10:21:13.097Z,13.63
2023-04-19T10:25:18.566Z,13.62
2023-04-19T10:30:00.909Z,13.59
2023-04-19T10:34:04.320Z,13.54
2023-04-19T10:38:10.534Z,13.47
2023-04-19T10:42:15.009Z,13.41
2023-04-19T10:46:38.884Z,13.39
2023-04-19T10:51:00.122Z,13.44
2023-04-19T10:55:05.737Z,13.54
2023-04-19T10:59:23.611Z,13.67
2023-04-19T11:03:54.565Z,13.83
2023-04-19T11:07:58.958Z,13.91
2023-04-19T11:12:04.215Z,13.97
2023-04-19T11:16:11.771Z,13.97
2023-04-19T11:20:15.502Z,13.93
2023-04-19T11:24:21.246Z,13.86
2023-04-19T11:28:24.738Z,13.75
2023-04-19T11:32:30.374Z,13.64
2023-04-19T11:36:34.168Z,13.58
2023-04-19T11:40:37.980Z,13.54
2023-04-19T11:44:41.551Z,13.54
2023-04-19T11:48:55.251Z,13.56
2023-04-19T11:52:59.790Z,13.61
2023-04-19T11:57:05.097Z,13.67
2023-04-19T12:01:10.199Z,13.71
2023-04-19T12:05:17.314Z,13.70
2023-04-19T12:09:24.242Z,13.65
2023-04-19T12:13:28.381Z,13.63
2023-04-19T12:17:31.551Z,13.59
2023-04-19T12:21:37.006Z,13.56
2023-04-19T12:25:40.628Z,13.54
2023-04-19T12:29:44.752Z,13.54
2023-04-19T12:33:47.801Z,13.53
2023-04-19T12:37:54.390Z,13.54
2023-04-19T12:41:58.101Z,13.51
2023-04-19T12:46:01.910Z,13.50
2023-04-19T12:50:06.126Z,13.49
2023-04-19T12:54:11.270Z,13.46
2023-04-19T12:58:14.592Z,13.36
2023-04-19T13:02:18.186Z,13.23
2023-04-19T13:06:21.784Z,13.06
2023-04-19T13:10:26.809Z,12.85
2023-04-19T13:14:31.085Z,12.69
2023-04-19T13:18:34.374Z,12.55
2023-04-19T13:22:37.747Z,12.47
2023-04-19T13:26:43.002Z,12.46
2023-04-19T13:30:46.668Z,12.42
2023-04-19T13:34:50.306Z,12.33
2023-04-19T13:38:53.381Z,12.23
2023-04-19T13:42:58.654Z,12.16
2023-04-19T13:47:03.715Z,12.10
2023-04-19T13:51:08.481Z,12.04
2023-04-19T13:55:11.951Z,12.07
2023-04-19T13:59:17.114Z,12.04
2023-04-19T14:03:20.944Z,11.94
2023-04-19T14:07:33.099Z,11.82
2023-04-19T14:11:38.355Z,11.68
2023-04-19T14:15:43.485Z,11.55
2023-04-19T14:19:46.699Z,11.48
2023-04-19T14:23:50.074Z,11.40
2023-04-19T14:27:53.958Z,11.20
2023-04-19T14:32:05.066Z,10.93
2023-04-19T14:36:14.198Z,10.64
2023-04-19T14:40:18.803Z,10.39
2023-04-19T14:44:22.364Z,10.20
2023-04-19T14:48:27.394Z,10.09
2023-04-19T14:52:31.087Z,10.01
2023-04-19T14:56:34.214Z,9.94
2023-04-19T15:00:37.820Z,9.88
2023-04-19T15:04:45.154Z,9.85
2023-04-19T15:08:49.100Z,9.87
2023-04-19T15:12:52.685Z,9.96
2023-04-19T15:16:56.318Z,10.10
2023-04-19T15:21:02.040Z,10.23
2023-04-19T15:25:06.145Z,10.38
2023-04-19T15:29:10.877Z,10.53
2023-04-19T15:33:14.307Z,10.65
2023-04-19T15:37:19.981Z,10.77
2023-04-19T15:41:23.575Z,10.85
2023-04-19T15:45:26.736Z,10.87
2023-04-19T15:49:32.272Z,10.89
2023-04-19T15:53:37.261Z,10.86
2023-04-19T15:57:40.974Z,10.80
2023-04-19T16:01:44.058Z,10.75
2023-04-19T16:05:50.878Z,10.67
2023-04-19T16:09:56.234Z,10.60
2023-04-19T16:13:59.283Z,10.52
2023-04-19T16:18:02.800Z,10.46
2023-04-19T16:22:07.248Z,10.41
2023-04-19T16:26:11.996Z,10.39
2023-04-19T16:30:16.448Z,10.34
2023-04-19T16:34:22.148Z,10.27
2023-04-19T16:38:25.873Z,10.24
2023-04-19T16:42:31.153Z,10.17
2023-04-19T16:46:34.277Z,10.10
2023-04-19T16:50:38.372Z,10.05
2023-04-19T16:54:43.648Z,10.02
2023-04-19T16:58:50.721Z,10.01
2023-04-19T17:02:57.035Z,9.98
2023-04-19T17:07:00.649Z,9.98
2023-04-19T17:11:03.793Z,9.98
2023-04-19T17:15:09.925Z,9.97
2023-04-19T17:19:13.217Z,9.96
2023-04-19T17:23:16.395Z,9.96
2023-04-19T17:27:19.513Z,9.94
2023-04-19T17:31:24.165Z,9.81
2023-04-19T17:35:27.612Z,9.63
2023-04-19T17:39:31.224Z,9.52
2023-04-19T17:43:34.750Z,9.37
2023-04-19T17:47:40.139Z,9.22
2023-04-19T17:51:43.919Z,9.11
2023-04-19T17:55:47.210Z,8.97
2023-04-19T17:59:50.631Z,8.81
2023-04-19T18:03:55.408Z,8.68
2023-04-19T18:08:01.224Z,8.72
2023-04-19T18:12:04.651Z,8.70
2023-04-19T18:16:07.960Z,8.67
2023-04-19T18:20:14.461Z,8.62
2023-04-19T18:24:17.877Z,8.67
2023-04-19T18:28:21.645Z,8.61
2023-04-19T18:32:29.223Z,8.53
2023-04-19T18:36:33.587Z,8.58
2023-04-19T18:40:38.619Z,8.70
2023-04-19T18:48:48.746Z,8.84
2023-04-19T18:52:53.135Z,8.84
2023-04-19T18:57:21.778Z,8.88
2023-04-19T19:01:21.067Z,8.96
2023-04-19T19:05:24.444Z,9.00
2023-04-19T19:09:29.246Z,9.01
2023-04-19T19:13:32.513Z,9.06
2023-04-19T19:17:36.410Z,9.09
2023-04-19T19:21:41.694Z,9.12
2023-04-19T19:25:51.873Z,9.15
2023-04-19T19:29:58.808Z,9.15
2023-04-19T19:34:22.692Z,9.17
2023-04-19T19:38:27.458Z,9.17
2023-04-19T19:42:34.158Z,9.18
2023-04-19T19:46:37.811Z,9.16
2023-04-19T19:54:52.549Z,9.12
2023-04-19T19:58:58.420Z,9.11
2023-04-19T20:03:02.224Z,9.09
2023-04-19T20:11:14.015Z,9.05
2023-04-19T20:15:19.302Z,9.03
2023-04-19T20:19:22.913Z,9.00
2023-04-19T20:23:28.912Z,8.96
2023-04-19T20:27:38.260Z,8.95
2023-04-19T20:31:44.446Z,8.94
2023-04-19T20:35:56.972Z,8.90
2023-04-19T20:40:00.254Z,8.94
2023-04-19T20:44:05.516Z,8.92
2023-04-19T20:48:10.935Z,8.93
2023-04-19T20:52:14.479Z,8.93
2023-04-19T20:56:18.323Z,8.95
2023-04-19T21:00:22.312Z,8.96
2023-04-19T21:04:27.976Z,9.00
2023-04-19T21:08:31.235Z,9.00
2023-04-19T21:12:35.277Z,9.03
2023-04-19T21:16:40.795Z,9.04
2023-04-19T21:20:45.394Z,9.05
2023-04-19T21:24:48.501Z,9.03
2023-04-19T21:28:53.002Z,9.00
2023-04-19T21:32:56.705Z,9.01
2023-04-19T21:37:01.551Z,9.00
2023-04-19T21:41:05.299Z,8.99
2023-04-19T21:45:09.962Z,9.00
2023-04-19T21:49:15.441Z,9.01
2023-04-19T21:53:20.195Z,9.03
2023-04-19T21:57:25.361Z,9.02
2023-04-19T22:01:29.054Z,9.02
2023-04-19T22:05:32.995Z,9.04
2023-04-19T22:09:37.551Z,9.05
2023-04-19T22:13:41.586Z,9.05
2023-04-19T22:17:46.262Z,9.06
2023-04-19T22:21:50.073Z,9.06
2023-04-19T22:25:54.749Z,9.07
2023-04-19T22:29:58.389Z,9.05
2023-04-19T22:34:01.704Z,9.05
2023-04-19T22:38:05.177Z,9.04
2023-04-19T22:42:10.318Z,9.05
2023-04-19T22:46:14.092Z,9.03
2023-04-19T22:50:18.283Z,9.02
2023-04-19T22:54:21.871Z,9.02
2023-04-19T22:58:26.414Z,9.00
2023-04-19T23:02:29.771Z,8.99
2023-04-19T23:06:34.626Z,8.99
2023-04-19T23:10:39.149Z,8.97
2023-04-19T23:14:44.011Z,8.96
2023-04-19T23:18:47.310Z,8.94
2023-04-19T23:22:51.082Z,8.94
2023-04-19T23:26:54.493Z,8.92
2023-04-19T23:30:59.722Z,8.90
2023-04-19T23:35:03.210Z,8.89
2023-04-19T23:39:08.704Z,8.88
2023-04-19T23:43:11.844Z,8.90
2023-04-19T23:47:17.383Z,8.89
2023-04-19T23:51:20.584Z,8.88
2023-04-19T23:55:24.693Z,8.87
2023-04-19T23:59:28.192Z,8.88
